Time;durP1;ratioP1;P1;durP2;ratioP2;P2;SDS_P1;SDS_P2;PMS_P1;PMS_P2;Temp;Humidity;BMP_temperature;BMP_pressure;BME280_temperature;BME280_humidity;BME280_pressure;Samples;Min_cycle;Max_cycle;Signal;HPM_P1;HPM_P2
2020/12/31 00:01:38;;;;;;;22.45;5.95;;;;;;;8.91;100.00;100687.34;1763380;81;21377;-52
2020/12/31 00:04:06;;;;;;;21.15;5.90;;;;;;;8.92;100.00;100678.40;1773956;80;21139;-52
2020/12/31 00:06:34;;;;;;;27.00;6.80;;;;;;;8.94;100.00;100685.47;1754804;81;21125;-52
2020/12/31 00:09:01;;;;;;;22.98;6.53;;;;;;;8.93;100.00;100685.05;1771350;81;21119;-52
2020/12/31 00:11:29;;;;;;;18.45;6.12;;;;;;;8.92;100.00;100679.73;1754854;81;21121;-52
2020/12/31 00:13:58;;;;;;;22.45;6.33;;;;;;;8.90;100.00;100685.14;1771271;81;23597;-54
2020/12/31 00:16:25;;;;;;;22.32;6.53;;;;;;;8.87;100.00;100675.88;1754738;81;20986;-52
2020/12/31 00:18:53;;;;;;;19.48;6.00;;;;;;;8.87;100.00;100675.41;1771363;81;21067;-53
2020/12/31 00:21:20;;;;;;;19.02;6.03;;;;;;;8.87;100.00;100668.72;1754694;81;21125;-52
2020/12/31 00:23:48;;;;;;;25.55;7.17;;;;;;;8.86;100.00;100679.00;1771349;81;21198;-53
2020/12/31 00:26:16;;;;;;;20.43;6.35;;;;;;;8.85;100.00;100681.26;1754802;81;21373;-52
2020/12/31 00:28:44;;;;;;;28.20;6.22;;;;;;;8.82;100.00;100674.67;1771267;81;21064;-52
2020/12/31 00:31:11;;;;;;;20.75;6.15;;;;;;;8.78;100.00;100675.69;1754804;81;21133;-53
2020/12/31 00:33:39;;;;;;;22.17;6.12;;;;;;;8.77;100.00;100672.59;1771227;80;21130;-53
2020/12/31 00:36:07;;;;;;;24.75;5.50;;;;;;;8.73;100.00;100671.80;1754834;81;21061;-52
2020/12/31 00:38:35;;;;;;;20.60;6.25;;;;;;;8.71;100.00;100660.27;1746774;82;21378;-52
2020/12/31 00:41:03;;;;;;;20.95;5.50;;;;;;;8.69;100.00;100662.56;1758250;81;21062;-53
2020/12/31 00:43:30;;;;;;;26.23;6.08;;;;;;;8.72;100.00;100671.83;1758237;81;21011;-52
2020/12/31 00:45:58;;;;;;;22.90;5.75;;;;;;;8.74;100.00;100660.66;1758281;81;21141;-52
2020/12/31 00:48:25;;;;;;;19.12;6.25;;;;;;;8.75;100.00;100670.43;1758258;81;21042;-52
2020/12/31 00:50:53;;;;;;;19.45;6.40;;;;;;;8.78;100.00;100669.00;1758320;81;21669;-51
2020/12/31 00:53:21;;;;;;;19.73;5.35;;;;;;;8.77;100.00;100667.25;1758238;81;21133;-52
2020/12/31 00:55:49;;;;;;;28.47;7.17;;;;;;;8.78;100.00;100666.77;1758345;81;21011;-51
2020/12/31 00:58:18;;;;;;;21.07;5.90;;;;;;;8.77;100.00;100675.27;1757957;81;37863;-52
2020/12/31 01:00:45;;;;;;;20.50;5.70;;;;;;;8.77;100.00;100667.25;1758223;81;21195;-52
2020/12/31 01:03:14;;;;;;;19.77;5.85;;;;;;;8.74;100.00;100673.55;1758426;81;22158;-52
2020/12/31 01:05:41;;;;;;;22.52;5.97;;;;;;;8.73;100.00;100670.46;1762635;81;21129;-52
2020/12/31 01:08:10;;;;;;;22.15;6.00;;;;;;;8.72;100.00;100662.03;1763999;81;21122;-52
2020/12/31 01:10:38;;;;;;;21.60;5.53;;;;;;;8.72;100.00;100661.13;1763876;81;21050;-52
2020/12/31 01:13:05;;;;;;;21.73;6.20;;;;;;;8.71;100.00;100666.06;1763961;81;21054;-52
2020/12/31 01:15:33;;;;;;;19.73;5.35;;;;;;;8.69;100.00;100666.57;1763977;81;21739;-52
2020/12/31 01:18:01;;;;;;;19.87;5.17;;;;;;;8.67;100.00;100669.31;1763847;80;20998;-52
2020/12/31 01:20:31;;;;;;;23.35;5.80;;;;;;;8.65;100.00;100662.24;1763976;81;21177;-52
2020/12/31 01:23:02;;;;;;;21.93;5.65;;;;;;;8.62;100.00;100662.33;1763958;81;21125;-53
2020/12/31 01:25:29;;;;;;;26.85;5.87;;;;;;;8.59;100.00;100664.17;1764003;81;21117;-52
2020/12/31 01:27:57;;;;;;;20.20;5.40;;;;;;;8.57;100.00;100662.45;1763970;81;22154;-53
2020/12/31 01:30:24;;;;;;;21.90;5.75;;;;;;;8.54;100.00;100668.78;1763932;81;21074;-52
2020/12/31 01:32:52;;;;;;;22.93;6.60;;;;;;;8.53;100.00;100672.38;1763891;81;21145;-52
2020/12/31 01:35:20;;;;;;;21.10;5.92;;;;;;;8.51;100.00;100678.22;1746914;81;21114;-52
2020/12/31 01:37:49;;;;;;;17.70;5.28;;;;;;;8.52;100.00;100672.41;1783054;80;21143;-52
2020/12/31 01:40:16;;;;;;;18.65;6.15;;;;;;;8.51;100.00;100678.22;1774662;80;21222;-53
2020/12/31 01:42:45;;;;;;;24.57;6.50;;;;;;;8.50;100.00;100667.08;1760317;81;21173;-51
2020/12/31 01:45:14;;;;;;;22.85;4.75;;;;;;;8.51;100.00;100671.55;1774607;80;21146;-52
2020/12/31 01:47:42;;;;;;;20.15;5.87;;;;;;;8.51;100.00;100658.19;1760351;81;21170;-52
2020/12/31 01:50:09;;;;;;;18.30;5.72;;;;;;;8.53;100.00;100659.02;1724262;80;21166;-52
2020/12/31 01:52:37;;;;;;;18.52;5.45;;;;;;;8.59;100.00;100652.59;1760516;81;21648;-52
2020/12/31 01:55:05;;;;;;;20.97;5.05;;;;;;;8.66;100.00;100646.63;1774419;80;21106;-52
2020/12/31 01:57:33;;;;;;;18.12;6.35;;;;;;;8.74;100.00;100657.98;1732831;81;21062;-52
2020/12/31 02:00:00;;;;;;;16.73;5.37;;;;;;;8.81;100.00;100639.50;1774522;80;21146;-52
2020/12/31 02:02:28;;;;;;;21.37;5.30;;;;;;;8.86;100.00;100642.05;1760631;81;21148;-53
2020/12/31 02:04:56;;;;;;;22.13;5.42;;;;;;;8.88;100.00;100639.72;1774603;80;21393;-53
2020/12/31 02:07:23;;;;;;;18.52;5.50;;;;;;;8.88;100.00;100646.41;1760548;81;21057;-52
2020/12/31 02:09:51;;;;;;;24.35;6.55;;;;;;;8.85;100.00;100630.46;1774709;80;21111;-52
2020/12/31 02:12:19;;;;;;;25.57;6.60;;;;;;;8.82;100.00;100637.24;1760527;81;21157;-53
2020/12/31 02:14:50;;;;;;;24.02;5.95;;;;;;;8.74;100.00;100633.93;1774719;80;21044;-53
2020/12/31 02:17:18;;;;;;;19.70;5.50;;;;;;;8.68;100.00;100631.41;1760562;81;21420;-52
2020/12/31 02:19:45;;;;;;;19.05;5.58;;;;;;;8.60;100.00;100631.19;1774666;80;21064;-52
2020/12/31 02:22:14;;;;;;;18.90;5.67;;;;;;;8.56;100.00;100627.30;1760545;81;21045;-52
2020/12/31 02:24:42;;;;;;;23.12;5.58;;;;;;;8.54;100.00;100626.02;1774788;80;21519;-52
2020/12/31 02:27:09;;;;;;;28.55;6.67;;;;;;;8.52;100.00;100630.54;1760565;81;21137;-53
2020/12/31 02:29:37;;;;;;;23.90;5.30;;;;;;;8.54;100.00;100622.02;1774801;80;21430;-52
2020/12/31 02:32:05;;;;;;;20.92;5.35;;;;;;;8.55;100.00;100622.43;1760541;81;21567;-52
2020/12/31 02:34:32;;;;;;;22.55;5.62;;;;;;;8.58;100.00;100621.00;1774794;80;21194;-52
2020/12/31 02:37:00;;;;;;;23.47;5.75;;;;;;;8.62;100.00;100612.45;1761749;81;21193;-52
2020/12/31 02:39:28;;;;;;;16.02;5.58;;;;;;;8.65;100.00;100613.69;1764110;81;21138;-53
2020/12/31 02:41:56;;;;;;;21.48;4.87;;;;;;;8.69;100.00;100602.42;1763983;81;21758;-51
2020/12/31 02:44:23;;;;;;;23.25;5.90;;;;;;;8.71;100.00;100606.81;1764028;81;21126;-53
2020/12/31 02:46:51;;;;;;;21.10;7.10;;;;;;;8.73;100.00;100597.39;1763973;81;21129;-52
2020/12/31 02:49:18;;;;;;;23.65;5.92;;;;;;;8.76;100.00;100606.69;1764026;81;21405;-53
2020/12/31 02:51:46;;;;;;;28.17;5.92;;;;;;;8.81;100.00;100606.09;1764155;81;21106;-53
2020/12/31 02:54:14;;;;;;;18.15;6.08;;;;;;;8.86;100.00;100604.14;1764016;81;21184;-53
2020/12/31 02:56:42;;;;;;;20.57;6.42;;;;;;;8.93;100.00;100598.59;1764026;81;21121;-53
2020/12/31 02:59:09;;;;;;;24.40;5.40;;;;;;;8.97;100.00;100608.30;1764037;81;21126;-52
2020/12/31 03:01:37;;;;;;;25.48;5.42;;;;;;;9.01;100.00;100612.63;1764002;81;21067;-53
2020/12/31 03:04:05;;;;;;;24.47;5.62;;;;;;;9.06;100.00;100612.02;1764012;81;21050;-52
2020/12/31 03:06:33;;;;;;;21.05;5.72;;;;;;;9.11;100.00;100608.73;1764000;81;21354;-53
2020/12/31 03:09:00;;;;;;;22.80;6.20;;;;;;;9.14;100.00;100614.45;1763927;81;21137;-52
2020/12/31 03:11:28;;;;;;;21.60;6.03;;;;;;;9.14;100.00;100621.14;1764081;80;21078;-52
2020/12/31 03:13:55;;;;;;;29.15;6.58;;;;;;;9.09;100.00;100617.27;1763974;81;21043;-52
2020/12/31 03:16:23;;;;;;;23.45;6.20;;;;;;;9.03;100.00;100610.78;1764042;81;21058;-51
2020/12/31 03:18:51;;;;;;;23.65;6.72;;;;;;;8.95;100.00;100607.44;1764087;81;21562;-52
2020/12/31 03:21:18;;;;;;;22.07;6.15;;;;;;;8.86;100.00;100609.48;1763899;80;21181;-52
2020/12/31 03:23:46;;;;;;;24.20;5.17;;;;;;;8.80;100.00;100615.03;1764084;81;21062;-53
2020/12/31 03:26:14;;;;;;;28.02;6.03;;;;;;;8.74;100.00;100601.86;1764007;81;20932;-52
2020/12/31 03:28:42;;;;;;;24.82;6.40;;;;;;;8.68;100.00;100606.02;1764049;81;21141;-52
2020/12/31 03:31:10;;;;;;;25.75;5.95;;;;;;;8.60;100.00;100599.11;1763984;81;21383;-52
2020/12/31 03:33:37;;;;;;;22.02;6.50;;;;;;;8.57;100.00;100601.88;1764019;81;21486;-52
2020/12/31 03:36:05;;;;;;;24.40;6.67;;;;;;;8.58;100.00;100594.72;1764003;81;21070;-53
2020/12/31 03:38:32;;;;;;;17.05;5.58;;;;;;;8.64;100.00;100604.37;1760556;80;21149;-52
2020/12/31 03:41:00;;;;;;;31.85;6.35;;;;;;;8.70;100.00;100582.79;1774555;80;21119;-52
2020/12/31 03:43:28;;;;;;;21.93;6.37;;;;;;;8.79;100.00;100595.91;1760561;81;21384;-53
2020/12/31 03:45:55;;;;;;;24.95;6.67;;;;;;;8.86;100.00;100598.80;1774652;80;21466;-52
2020/12/31 03:48:23;;;;;;;22.05;5.75;;;;;;;8.92;100.00;100602.20;1760665;81;21353;-52
2020/12/31 03:50:50;;;;;;;21.68;6.75;;;;;;;8.93;100.00;100607.52;1774689;80;21159;-52
2020/12/31 03:53:17;;;;;;;26.97;6.22;;;;;;;8.93;100.00;100608.84;1760546;81;21459;-52
2020/12/31 03:55:45;;;;;;;23.95;5.87;;;;;;;8.96;100.00;100606.08;1774677;80;21201;-51
2020/12/31 03:58:12;;;;;;;23.52;5.33;;;;;;;8.99;100.00;100607.31;1760416;81;21180;-52
2020/12/31 04:00:40;;;;;;;15.08;5.40;;;;;;;9.00;100.00;100601.04;1774672;80;21130;-53
2020/12/31 04:03:08;;;;;;;21.93;6.03;;;;;;;9.02;100.00;100597.00;1760322;81;21140;-53
2020/12/31 04:05:36;;;;;;;25.55;6.25;;;;;;;9.01;100.00;100593.91;1773527;80;21095;-53
2020/12/31 04:08:04;;;;;;;23.45;6.25;;;;;;;9.01;100.00;100599.26;1754843;81;21207;-52
2020/12/31 04:10:31;;;;;;;22.02;6.22;;;;;;;9.01;100.00;100591.23;1771251;81;21171;-52
2020/12/31 04:12:59;;;;;;;16.52;5.00;;;;;;;9.04;100.00;100597.82;1754806;81;21157;-52
2020/12/31 04:15:27;;;;;;;26.57;5.95;;;;;;;9.06;100.00;100585.27;1771346;81;21068;-52
2020/12/31 04:17:55;;;;;;;20.10;5.22;;;;;;;9.08;100.00;100588.77;1754884;81;21065;-53
2020/12/31 04:20:22;;;;;;;23.27;5.70;;;;;;;9.09;100.00;100590.52;1771328;81;21391;-52
2020/12/31 04:22:50;;;;;;;21.62;5.97;;;;;;;9.09;100.00;100593.20;1754670;81;21141;-54
2020/12/31 04:25:17;;;;;;;16.70;5.22;;;;;;;9.09;100.00;100590.52;1771343;81;21057;-53
2020/12/31 04:27:45;;;;;;;18.95;5.67;;;;;;;9.09;100.00;100590.52;1754829;81;21062;-53
2020/12/31 04:30:12;;;;;;;18.23;6.05;;;;;;;9.12;100.00;100589.56;1771320;80;21111;-53
2020/12/31 04:32:40;;;;;;;21.27;5.22;;;;;;;9.15;100.00;100592.99;1754881;81;21711;-53
2020/12/31 04:35:08;;;;;;;19.50;5.42;;;;;;;9.17;100.00;100587.16;1771182;81;21068;-53
2020/12/31 04:37:35;;;;;;;25.40;5.78;;;;;;;9.19;100.00;100592.92;1756945;81;21066;-52
2020/12/31 04:40:03;;;;;;;24.52;5.35;;;;;;;9.19;100.00;100592.92;1758228;81;21070;-53
2020/12/31 04:42:35;;;;;;;21.45;5.40;;;;;;;9.19;100.00;100585.76;1758323;81;21146;-53
2020/12/31 04:45:04;;;;;;;19.57;5.25;;;;;;;9.21;100.00;100582.57;1758416;81;22139;-53
2020/12/31 04:47:44;;;;;;;15.88;5.00;;;;;;;9.24;100.00;100592.31;1758341;81;20999;-54
2020/12/31 04:50:12;;;;;;;23.12;5.30;;;;;;;9.28;100.00;100595.30;1758308;81;21035;-53
2020/12/31 04:52:40;;;;;;;17.55;5.17;;;;;;;9.28;100.00;100595.30;1758210;81;21118;-53
2020/12/31 04:55:08;;;;;;;23.10;6.47;;;;;;;9.25;100.00;100599.41;1758310;81;21075;-53
2020/12/31 04:57:35;;;;;;;26.48;5.85;;;;;;;9.21;100.00;100607.13;1758294;81;21400;-53
2020/12/31 05:00:03;;;;;;;23.85;5.22;;;;;;;9.14;100.00;100607.30;1758296;81;21106;-53
2020/12/31 05:02:30;;;;;;;18.05;4.97;;;;;;;9.11;100.00;100603.86;1758198;81;21146;-53
2020/12/31 05:05:00;;;;;;;13.18;5.00;;;;;;;9.10;100.00;100604.30;1758296;81;21055;-52
2020/12/31 05:07:28;;;;;;;22.58;5.30;;;;;;;9.13;100.00;100606.88;1758286;81;21078;-53
2020/12/31 05:10:10;;;;;;;18.85;5.25;;;;;;;9.16;100.00;100615.28;1758357;81;21699;-52
2020/12/31 05:12:37;;;;;;;20.75;5.97;;;;;;;9.15;100.00;100618.41;1758201;81;21074;-52
2020/12/31 05:15:05;;;;;;;24.43;6.25;;;;;;;9.10;100.00;100617.68;1758274;81;21095;-53
2020/12/31 05:17:33;;;;;;;26.62;6.03;;;;;;;9.07;100.00;100627.14;1758320;81;21149;-53
2020/12/31 05:20:14;;;;;;;18.85;5.85;;;;;;;9.02;100.00;100620.59;1758274;81;21098;-53
2020/12/31 05:22:42;;;;;;;22.95;6.65;;;;;;;9.00;100.00;100621.58;1758268;81;21206;-52
2020/12/31 05:25:09;;;;;;;23.62;6.05;;;;;;;8.98;100.00;100611.39;1758205;81;21177;-52
2020/12/31 05:27:37;;;;;;;18.67;5.35;;;;;;;8.99;100.00;100614.48;1758300;81;21145;-52
2020/12/31 05:30:09;;;;;;;23.92;6.08;;;;;;;9.01;100.00;100619.31;1758217;81;21096;-52
2020/12/31 05:32:38;;;;;;;24.37;5.58;;;;;;;9.05;100.00;100620.97;1758349;81;21059;-52
2020/12/31 05:35:16;;;;;;;25.43;5.25;;;;;;;9.12;100.00;100625.19;1758462;81;22277;-52
2020/12/31 05:37:44;;;;;;;20.15;5.22;;;;;;;9.19;100.00;100637.06;1756094;81;21078;-54
2020/12/31 05:40:13;;;;;;;23.52;5.70;;;;;;;9.24;100.00;100633.77;1771490;81;20988;-53
2020/12/31 05:42:43;;;;;;;21.75;5.03;;;;;;;9.29;100.00;100638.51;1754782;81;21125;-52
2020/12/31 05:45:18;;;;;;;26.77;5.55;;;;;;;9.31;100.00;100634.88;1771555;81;21115;-53
2020/12/31 05:47:50;;;;;;;21.97;5.50;;;;;;;9.34;100.00;100629.87;1754871;81;21225;-52
2020/12/31 05:50:34;;;;;;;22.02;5.45;;;;;;;9.33;100.00;100636.63;1771439;81;21087;-52
2020/12/31 05:53:01;;;;;;;22.58;6.08;;;;;;;9.31;100.00;100641.56;1754930;81;21117;-53
2020/12/31 05:55:29;;;;;;;16.32;5.00;;;;;;;9.32;100.00;100637.07;1771369;81;21135;-53
2020/12/31 05:57:58;;;;;;;19.95;5.08;;;;;;;9.32;100.00;100637.07;1754938;81;21087;-52
2020/12/31 06:00:29;;;;;;;23.67;5.60;;;;;;;9.32;100.00;100637.07;1771440;81;21194;-53
2020/12/31 06:02:59;;;;;;;18.17;5.67;;;;;;;9.34;100.00;100641.91;1754782;81;21133;-54
2020/12/31 06:05:29;;;;;;;22.50;5.28;;;;;;;9.36;100.00;100640.06;1771387;80;21064;-53
2020/12/31 06:07:58;;;;;;;25.08;5.78;;;;;;;9.39;100.00;100641.29;1754894;81;21050;-53
2020/12/31 06:10:30;;;;;;;23.73;5.37;;;;;;;9.41;100.00;100644.83;1771471;81;21075;-52
2020/12/31 06:13:01;;;;;;;23.15;5.78;;;;;;;9.44;100.00;100645.17;1755111;81;21389;-53
2020/12/31 06:15:34;;;;;;;23.50;5.65;;;;;;;9.46;100.00;100646.88;1771314;81;21292;-52
2020/12/31 06:18:04;;;;;;;21.25;6.00;;;;;;;9.46;100.00;100641.53;1754938;81;21109;-54
2020/12/31 06:20:38;;;;;;;26.68;6.00;;;;;;;9.46;100.00;100638.86;1771272;81;21119;-52
2020/12/31 06:23:15;;;;;;;23.77;5.87;;;;;;;9.45;100.00;100630.41;1755117;81;26724;-52
2020/12/31 06:25:48;;;;;;;28.20;6.17;;;;;;;9.46;100.00;100645.55;1771422;80;22112;-52
2020/12/31 06:28:19;;;;;;;22.93;5.33;;;;;;;9.48;100.00;100640.61;1755100;81;21486;-52
2020/12/31 06:30:51;;;;;;;21.05;5.10;;;;;;;9.52;100.00;100636.90;1771597;81;21723;-53
2020/12/31 06:33:47;;;;;;;18.87;4.97;;;;;;;9.57;100.00;100634.94;1754802;81;21126;-52
2020/12/31 06:36:15;;;;;;;16.97;5.33;;;;;;;9.62;100.00;100627.66;1771707;80;21064;-54
2020/12/31 06:38:47;;;;;;;16.73;5.00;;;;;;;9.69;100.00;100635.89;1778186;80;21366;-52
2020/12/31 06:41:38;;;;;;;25.32;5.67;;;;;;;9.75;100.00;100635.67;1759674;81;21156;-53
2020/12/31 06:44:15;;;;;;;19.87;5.55;;;;;;;9.82;100.00;100638.14;1778429;80;21691;-53
2020/12/31 06:46:48;;;;;;;23.30;5.37;;;;;;;9.85;100.00;100635.38;1778113;80;21044;-52
2020/12/31 06:49:16;;;;;;;21.37;5.45;;;;;;;9.85;100.00;100636.24;1778284;80;21044;-53
2020/12/31 06:51:44;;;;;;;23.55;6.20;;;;;;;9.85;100.00;100636.72;1786927;80;21243;-52
2020/12/31 06:54:12;;;;;;;18.65;5.65;;;;;;;9.85;100.00;100635.38;1787018;80;21147;-53
2020/12/31 06:56:46;;;;;;;17.57;5.00;;;;;;;9.87;100.00;100628.17;1787027;80;21155;-53
2020/12/31 06:59:35;;;;;;;26.68;6.03;;;;;;;9.86;100.00;100633.12;1787049;80;21135;-53
2020/12/31 07:02:14;;;;;;;17.67;6.17;;;;;;;9.89;100.00;100633.86;1787071;80;21108;-53
2020/12/31 07:04:42;;;;;;;22.95;5.47;;;;;;;9.91;100.00;100635.61;1787017;80;21331;-52
2020/12/31 07:07:26;;;;;;;22.37;5.45;;;;;;;9.91;100.00;100635.17;1786961;80;21199;-52
2020/12/31 07:09:58;;;;;;;23.05;6.30;;;;;;;9.92;100.00;100639.59;1787051;80;21148;-53
2020/12/31 07:12:38;;;;;;;22.40;5.17;;;;;;;9.93;100.00;100638.67;1787243;80;22195;-53
2020/12/31 07:15:09;;;;;;;24.52;5.75;;;;;;;9.97;100.00;100642.98;1787009;80;21052;-53
2020/12/31 07:17:44;;;;;;;20.02;5.00;;;;;;;10.00;100.00;100646.89;1787088;80;21429;-52
2020/12/31 07:20:28;;;;;;;25.37;6.60;;;;;;;10.10;100.00;100645.25;1889584;76;28033;-53
2020/12/31 07:22:56;;;;;;;28.38;6.08;;;;;;;10.07;100.00;100646.22;1860497;77;21343;-54
2020/12/31 07:25:23;;;;;;;15.93;5.72;;;;;;;10.12;100.00;100643.39;1860502;77;21358;-54
2020/12/31 07:27:50;;;;;;;20.12;5.12;;;;;;;10.14;100.00;100649.57;1860484;77;21393;-54
2020/12/31 07:30:22;;;;;;;25.40;5.83;;;;;;;10.16;100.00;100652.59;1827790;77;21020;-54
2020/12/31 07:33:09;;;;;;;23.38;6.33;;;;;;;10.17;100.00;100657.50;1860278;77;20961;-53
2020/12/31 07:35:42;;;;;;;25.72;5.45;;;;;;;10.18;100.00;100643.17;1860509;77;20922;-54
2020/12/31 07:38:13;;;;;;;21.60;5.70;;;;;;;10.17;100.00;100649.45;1831108;77;21176;-52
2020/12/31 07:40:49;;;;;;;22.58;5.83;;;;;;;10.18;100.00;100657.45;1824942;78;20940;-54
2020/12/31 07:43:27;;;;;;;29.23;6.42;;;;;;;10.20;100.00;100656.53;1825009;77;20924;-53
2020/12/31 07:45:58;;;;;;;25.32;5.70;;;;;;;10.19;100.00;100666.35;1824888;78;21103;-54
2020/12/31 07:48:26;;;;;;;21.48;6.10;;;;;;;10.16;100.00;100666.46;1824959;78;20916;-53
2020/12/31 07:51:01;;;;;;;22.50;6.35;;;;;;;10.11;100.00;100666.61;1824880;78;21352;-53
2020/12/31 07:53:29;;;;;;;30.57;6.40;;;;;;;10.08;100.00;100660.50;1824938;77;21471;-53
2020/12/31 07:55:58;;;;;;;31.05;6.28;;;;;;;10.07;100.00;100651.58;1824773;78;20932;-53
2020/12/31 07:58:32;;;;;;;19.42;5.30;;;;;;;10.07;100.00;100658.76;1824819;78;21039;-53
2020/12/31 08:01:04;;;;;;;29.65;6.20;;;;;;;10.10;100.00;100647.93;1824448;78;20940;-53
2020/12/31 08:03:32;;;;;;;36.25;7.42;;;;;;;10.14;100.00;100646.89;1825304;78;21726;-53
2020/12/31 08:06:02;;;;;;;17.50;5.15;;;;;;;10.22;100.00;100646.63;1824908;78;21035;-54
2020/12/31 08:08:30;;;;;;;21.12;6.00;;;;;;;10.28;100.00;100652.66;1824929;78;21106;-52
2020/12/31 08:11:08;;;;;;;25.60;6.47;;;;;;;10.34;100.00;100656.03;1824913;78;21054;-53
2020/12/31 08:13:36;;;;;;;19.00;5.50;;;;;;;10.38;100.00;100652.31;1824995;78;21514;-52
2020/12/31 08:16:03;;;;;;;19.32;5.03;;;;;;;10.43;100.00;100658.41;1824942;77;21358;-53
2020/12/31 08:18:31;;;;;;;24.30;5.72;;;;;;;10.48;100.00;100664.47;1824954;77;21059;-53
2020/12/31 08:21:03;;;;;;;20.88;6.28;;;;;;;10.53;100.00;100657.16;1815169;78;21062;-53
2020/12/31 08:23:36;;;;;;;21.10;5.70;;;;;;;10.57;100.00;100658.80;1830937;78;21141;-53
2020/12/31 08:26:09;;;;;;;23.02;5.72;;;;;;;10.60;100.00;100664.03;1830843;77;21192;-53
2020/12/31 08:28:37;;;;;;;19.07;5.25;;;;;;;10.63;100.00;100669.77;1815807;78;21391;-54
2020/12/31 08:31:15;;;;;;;22.32;6.22;;;;;;;10.66;100.00;100671.44;1814740;78;20932;-55
2020/12/31 08:33:43;;;;;;;21.27;5.70;;;;;;;10.69;100.00;100667.30;1830346;77;21133;-53
2020/12/31 08:36:11;;;;;;;18.92;5.62;;;;;;;10.74;100.00;100669.38;1830370;77;21501;-52
2020/12/31 08:38:39;;;;;;;23.10;6.10;;;;;;;10.78;100.00;100660.72;1846379;77;20878;-53
2020/12/31 08:41:08;;;;;;;23.67;6.45;;;;;;;10.79;100.00;100667.39;1846282;77;21464;-53
2020/12/31 08:43:39;;;;;;;25.82;6.37;;;;;;;10.80;99.63;100659.75;1846262;77;21052;-53
2020/12/31 08:46:22;;;;;;;17.52;5.87;;;;;;;10.78;99.03;100659.38;1846266;77;20890;-53
2020/12/31 08:48:53;;;;;;;27.80;6.28;;;;;;;10.75;98.74;100649.67;1846217;77;21036;-53
2020/12/31 08:51:20;;;;;;;25.23;7.08;;;;;;;10.73;98.66;100652.88;1846278;77;21056;-54
2020/12/31 08:53:58;;;;;;;26.27;5.90;;;;;;;10.74;98.69;100650.59;1845361;77;22070;-53
2020/12/31 08:56:29;;;;;;;27.55;6.60;;;;;;;10.78;98.74;100650.00;1846222;77;20985;-53
2020/12/31 08:59:14;;;;;;;22.82;6.03;;;;;;;10.82;98.82;100646.27;1846244;77;21527;-53
2020/12/31 09:01:43;;;;;;;24.02;6.95;;;;;;;10.89;98.90;100651.34;1846289;77;20989;-53
2020/12/31 09:04:18;;;;;;;26.50;6.40;;;;;;;10.98;98.90;100647.44;1846208;77;21139;-54
2020/12/31 09:06:48;;;;;;;;;;;;;;;11.08;98.83;100658.69;1849015;77;21419;-52
2020/12/31 09:09:19;;;;;;;25.95;6.25;;;;;;;11.16;98.70;100651.69;1846085;77;20126;-53
2020/12/31 09:12:08;;;;;;;23.92;5.85;;;;;;;11.24;98.29;100655.42;1846261;77;21354;-53
2020/12/31 09:14:36;;;;;;;17.60;5.62;;;;;;;11.30;97.98;100645.77;1845541;77;21164;-53
2020/12/31 09:17:23;;;;;;;22.98;6.40;;;;;;;11.38;97.35;100644.98;1846251;77;21541;-52
2020/12/31 09:19:53;;;;;;;26.33;6.53;;;;;;;11.44;96.60;100650.13;1854352;77;20993;-54
2020/12/31 09:22:22;;;;;;;19.37;5.83;;;;;;;11.50;96.29;100648.13;1862819;77;21000;-53
2020/12/31 09:24:49;;;;;;;20.68;5.37;;;;;;;11.55;95.80;100647.02;1862986;77;20906;-53
2020/12/31 09:27:25;;;;;;;29.92;6.12;;;;;;;11.60;94.82;100652.17;1862950;77;20924;-52
2020/12/31 09:29:58;;;;;;;13.85;5.20;;;;;;;11.59;94.21;100653.11;1862949;77;21091;-53
2020/12/31 09:32:27;;;;;;;19.12;5.30;;;;;;;11.60;93.85;100647.69;1862943;77;22309;-53
2020/12/31 09:34:56;;;;;;;20.52;6.00;;;;;;;11.61;93.58;100654.81;1862258;77;21123;-52
2020/12/31 09:37:24;;;;;;;22.00;5.85;;;;;;;11.61;93.40;100642.73;1848960;77;21007;-53
2020/12/31 09:39:51;;;;;;;19.62;5.15;;;;;;;11.63;93.29;100648.50;1835180;78;21153;-52
2020/12/31 09:42:21;;;;;;;15.35;5.37;;;;;;;11.63;93.10;100641.78;1835332;77;21138;-52
2020/12/31 09:44:48;;;;;;;25.62;5.53;;;;;;;11.60;93.03;100628.89;1835335;78;22105;-53
2020/12/31 09:47:16;;;;;;;24.52;5.67;;;;;;;11.60;93.02;100628.00;1835266;78;20944;-53
2020/12/31 09:49:44;;;;;;;24.50;6.00;;;;;;;11.61;92.91;100624.41;1835237;78;20999;-52
2020/12/31 09:52:11;;;;;;;21.45;6.12;;;;;;;11.62;92.97;100627.50;1835366;78;21798;-53
2020/12/31 09:54:38;;;;;;;19.62;5.33;;;;;;;11.64;93.04;100632.34;1835361;77;21081;-53
2020/12/31 09:57:06;;;;;;;20.70;5.85;;;;;;;11.63;93.07;100624.33;1835399;78;22251;-54
2020/12/31 09:59:33;;;;;;;19.45;5.70;;;;;;;11.63;93.09;100638.64;1835344;78;21128;-53
2020/12/31 10:02:01;;;;;;;17.70;4.95;;;;;;;11.65;93.19;100627.37;1835273;78;21030;-53
2020/12/31 10:04:28;;;;;;;20.08;5.37;;;;;;;11.67;92.83;100634.89;1835408;78;21038;-54
2020/12/31 10:06:56;;;;;;;23.57;6.47;;;;;;;11.67;92.51;100638.92;1835263;77;21046;-54
2020/12/31 10:09:24;;;;;;;18.73;5.15;;;;;;;11.65;92.04;100633.20;1835342;78;21686;-54
2020/12/31 10:11:54;;;;;;;22.98;5.83;;;;;;;11.59;91.66;100628.94;1835199;78;21149;-53
2020/12/31 10:14:21;;;;;;;26.27;5.40;;;;;;;11.53;91.63;100623.38;1835312;77;20884;-54
2020/12/31 10:16:50;;;;;;;26.05;5.90;;;;;;;11.51;91.69;100628.40;1835301;77;21124;-53
2020/12/31 10:19:17;;;;;;;20.77;6.30;;;;;;;11.47;91.85;100616.90;1834428;77;21046;-53
2020/12/31 10:21:47;;;;;;;24.43;6.17;;;;;;;11.44;92.01;100619.26;1829443;78;21184;-53
2020/12/31 10:24:15;;;;;;;19.50;6.42;;;;;;;11.37;92.22;100607.00;1829574;78;21027;-52
2020/12/31 10:26:44;;;;;;;26.15;6.17;;;;;;;11.34;92.39;100601.77;1829427;78;21137;-53
2020/12/31 10:29:13;;;;;;;19.00;5.75;;;;;;;11.32;92.70;100606.32;1829356;78;21184;-53
2020/12/31 10:31:42;;;;;;;26.07;6.17;;;;;;;11.30;92.97;100603.72;1829462;78;21043;-54
2020/12/31 10:34:10;;;;;;;23.90;5.85;;;;;;;11.33;93.19;100594.65;1829475;78;21185;-53
2020/12/31 10:36:38;;;;;;;24.52;6.05;;;;;;;11.37;93.02;100598.95;1835047;77;20920;-53
2020/12/31 10:39:06;;;;;;;18.65;6.35;;;;;;;11.38;92.73;100602.03;1859577;77;20998;-53
2020/12/31 10:41:33;;;;;;;24.15;6.05;;;;;;;11.37;92.29;100600.29;1859622;77;20995;-53
2020/12/31 10:44:01;;;;;;;22.70;5.62;;;;;;;11.35;92.02;100592.77;1859575;77;21181;-53
2020/12/31 10:46:30;;;;;;;25.80;5.65;;;;;;;11.29;92.00;100593.03;1859687;77;21377;-53
2020/12/31 10:48:59;;;;;;;22.42;6.17;;;;;;;11.24;92.09;100592.35;1859455;77;21065;-52
2020/12/31 10:51:26;;;;;;;28.47;6.50;;;;;;;11.17;92.52;100591.27;1859578;77;20873;-53
2020/12/31 10:53:54;;;;;;;19.95;5.92;;;;;;;11.17;92.78;100593.95;1859531;77;21833;-52
2020/12/31 10:56:21;;;;;;;25.77;6.10;;;;;;;11.19;93.02;100577.77;1859588;77;21145;-53
2020/12/31 10:58:49;;;;;;;29.18;5.97;;;;;;;11.22;93.24;100572.76;1859570;77;21345;-54
2020/12/31 11:01:16;;;;;;;29.37;6.03;;;;;;;11.25;93.30;100569.95;1859496;77;20927;-53
2020/12/31 11:03:44;;;;;;;24.25;6.05;;;;;;;11.27;93.27;100562.70;1859616;77;20964;-53
2020/12/31 11:06:22;;;;;;;29.25;6.72;;;;;;;11.31;93.30;100558.95;1859509;77;20972;-53
2020/12/31 11:08:49;;;;;;;22.00;6.03;;;;;;;11.31;93.22;100561.19;1859732;77;21482;-54
2020/12/31 11:11:27;;;;;;;24.47;5.40;;;;;;;11.32;93.15;100552.19;1859528;77;21190;-53
2020/12/31 11:13:54;;;;;;;32.00;6.83;;;;;;;11.33;93.13;100547.67;1859583;77;21109;-54
2020/12/31 11:16:22;;;;;;;17.75;5.20;;;;;;;11.36;93.16;100554.74;1859573;77;21042;-53
2020/12/31 11:18:49;;;;;;;16.50;5.47;;;;;;;11.37;93.06;100547.95;1859731;77;22359;-53
2020/12/31 11:21:19;;;;;;;21.50;6.12;;;;;;;11.39;93.05;100544.77;1858163;76;21188;-54
2020/12/31 11:23:46;;;;;;;24.27;5.95;;;;;;;11.42;92.94;100552.69;1859609;77;21136;-53
2020/12/31 11:26:16;;;;;;;21.35;5.35;;;;;;;11.45;92.76;100548.98;1859564;77;21112;-54
2020/12/31 11:28:44;;;;;;;17.20;5.58;;;;;;;11.45;92.56;100541.81;1859536;77;21093;-53